Terminal Aerodrome Forecast
Issued by NWS

Home | Current Version | Previous Version | Text Only | Print | Product List | Glossary On
Versions: 1 2 3 4 5 6 7 8 9 10 11 12 13
000
FTUS44 KLZK 021100
TAFLIT
TAF
KLIT 021135Z 0212/0312 23008G15KT P6SM VCSH FEW050 BKN100 OVC250
     FM021700 24008G18KT P6SM VCTS SCT050CB BKN100 OVC250
     FM030000 24010G20KT P6SM VCSH SCT050 SCT100 BKN250=

USA.gov is the U.S. government's official web portal to all federal, state and local government web resources and services.